Time;durP1;ratioP1;P1;durP2;ratioP2;P2;SDS_P1;SDS_P2;PMS_P1;PMS_P2;Temp;Humidity;BMP_temperature;BMP_pressure;BME280_temperature;BME280_humidity;BME280_pressure;Samples;Min_cycle;Max_cycle;Signal;HPM_P1;HPM_P2
2021/05/04 00:01:47;;;;;;;0.40;0.40;;;14.90;71.10;;;;;;4158839;28;20126;-47
2021/05/04 00:04:09;;;;;;;0.52;0.52;;;14.80;71.00;;;;;;4158254;28;20080;-45
2021/05/04 00:06:30;;;;;;;2.10;1.67;;;14.90;71.00;;;;;;4158282;28;20072;-44
2021/05/04 00:08:51;;;;;;;0.22;0.22;;;14.80;70.80;;;;;;4157144;28;20045;-46
2021/05/04 00:11:13;;;;;;;0.00;0.00;;;14.80;70.70;;;;;;4158884;28;20244;-45
2021/05/04 00:13:34;;;;;;;0.00;0.00;;;14.80;70.80;;;;;;4158659;28;20069;-44
2021/05/04 00:15:55;;;;;;;0.08;0.08;;;14.80;70.70;;;;;;4158334;28;20045;-50
2021/05/04 00:18:16;;;;;;;;;;;14.80;70.80;;;;;;4157440;28;20077;-48
2021/05/04 00:20:37;;;;;;;0.00;0.00;;;14.80;70.80;;;;;;4158347;28;20393;-50
2021/05/04 00:22:58;;;;;;;0.00;0.00;;;14.80;70.80;;;;;;4158182;28;20073;-44
2021/05/04 00:25:20;;;;;;;1.10;1.10;;;14.80;70.60;;;;;;4156796;28;20053;-44
2021/05/04 00:27:41;;;;;;;0.28;0.28;;;14.80;70.50;;;;;;4158210;28;20051;-46
2021/05/04 00:30:02;;;;;;;1.65;0.75;;;14.80;70.40;;;;;;4158477;28;20484;-47
2021/05/04 00:32:23;;;;;;;1.27;1.25;;;14.80;70.30;;;;;;4158238;28;20499;-46
2021/05/04 00:34:45;;;;;;;;;;;14.80;70.30;;;;;;4158508;28;20045;-45
2021/05/04 00:37:05;;;;;;;0.00;0.00;;;14.80;70.20;;;;;;4153523;28;20750;-49
2021/05/04 00:39:34;;;;;;;0.00;0.00;;;14.80;70.10;;;;;;4142160;28;20062;-44
2021/05/04 00:41:56;;;;;;;0.70;0.70;;;14.80;70.10;;;;;;4141674;28;20088;-48
2021/05/04 00:44:17;;;;;;;0.00;0.00;;;14.80;70.10;;;;;;4147571;28;20041;-44
2021/05/04 00:46:38;;;;;;;0.38;0.38;;;14.80;70.10;;;;;;4157969;28;20049;-45
2021/05/04 00:48:59;;;;;;;0.00;0.00;;;14.80;70.00;;;;;;4158022;28;20139;-43
2021/05/04 00:51:21;;;;;;;0.25;0.25;;;14.80;69.80;;;;;;4157940;28;20056;-44
2021/05/04 00:53:42;;;;;;;0.00;0.00;;;14.80;69.70;;;;;;4158370;28;20111;-43
2021/05/04 00:56:04;;;;;;;0.00;0.00;;;14.80;69.60;;;;;;4158074;28;20080;-44
2021/05/04 00:58:26;;;;;;;1.35;1.17;;;14.80;69.50;;;;;;4158033;28;20052;-44
2021/05/04 01:00:48;;;;;;;0.40;0.40;;;14.80;69.40;;;;;;4158223;28;20065;-46
2021/05/04 01:03:11;;;;;;;6.25;2.42;;;14.80;69.40;;;;;;4157766;28;20467;-44
2021/05/04 01:05:32;;;;;;;0.20;0.20;;;14.80;69.40;;;;;;4157740;28;20048;-43
2021/05/04 01:07:53;;;;;;;1.30;0.73;;;14.80;69.50;;;;;;4157755;28;20045;-44
2021/05/04 01:10:14;;;;;;;0.00;0.00;;;14.70;69.50;;;;;;4157777;28;20224;-43
2021/05/04 01:12:35;;;;;;;0.00;0.00;;;14.70;69.30;;;;;;4157881;28;20067;-46
2021/05/04 01:14:58;;;;;;;0.40;0.40;;;14.70;69.30;;;;;;4158224;28;20647;-44
2021/05/04 01:17:19;;;;;;;6.82;0.70;;;14.70;69.30;;;;;;4160139;28;20492;-44
2021/05/04 01:19:40;;;;;;;0.10;0.10;;;14.70;69.30;;;;;;4161297;28;20050;-47
2021/05/04 01:22:01;;;;;;;0.10;0.10;;;14.70;69.20;;;;;;4161458;28;20055;-46
2021/05/04 01:24:23;;;;;;;0.20;0.20;;;14.70;69.10;;;;;;4160974;28;20059;-44
2021/05/04 01:26:44;;;;;;;0.00;0.00;;;14.70;69.00;;;;;;4161393;28;20597;-44
2021/05/04 01:29:05;;;;;;;0.10;0.10;;;14.70;69.00;;;;;;4160746;28;20050;-45
2021/05/04 01:31:26;;;;;;;0.03;0.03;;;14.70;69.00;;;;;;4160986;28;20053;-44
2021/05/04 01:33:47;;;;;;;0.55;0.55;;;14.70;69.00;;;;;;4160852;28;20065;-45
2021/05/04 01:36:08;;;;;;;0.00;0.00;;;14.70;69.00;;;;;;4160608;28;20049;-48
2021/05/04 01:38:29;;;;;;;0.05;0.05;;;14.70;69.00;;;;;;4160911;28;20046;-44
2021/05/04 01:40:50;;;;;;;;;;;14.70;69.00;;;;;;4160978;28;20056;-44
2021/05/04 01:43:11;;;;;;;0.00;0.00;;;14.70;69.10;;;;;;4161097;28;19921;-44
2021/05/04 01:45:32;;;;;;;0.00;0.00;;;14.70;69.20;;;;;;4160951;28;20046;-46
2021/05/04 01:47:53;;;;;;;4.55;0.65;;;14.70;69.20;;;;;;4160765;28;20073;-43
2021/05/04 01:50:15;;;;;;;;;;;14.60;69.30;;;;;;4161120;28;20069;-43
2021/05/04 01:52:36;;;;;;;0.17;0.17;;;14.60;69.30;;;;;;4160543;28;20438;-45
2021/05/04 01:54:57;;;;;;;0.00;0.00;;;14.60;69.40;;;;;;4160823;28;20128;-45
2021/05/04 01:57:19;;;;;;;0.52;0.52;;;14.60;69.50;;;;;;4160947;28;20056;-43
2021/05/04 01:59:40;;;;;;;0.00;0.00;;;14.60;69.60;;;;;;4160558;28;20072;-44
2021/05/04 02:02:01;;;;;;;0.00;0.00;;;14.60;69.60;;;;;;4160400;28;20551;-45
2021/05/04 02:04:24;;;;;;;0.00;0.00;;;14.60;69.60;;;;;;4160774;28;20049;-45
2021/05/04 02:06:45;;;;;;;0.00;0.00;;;14.60;69.70;;;;;;4160277;28;20053;-46
2021/05/04 02:09:07;;;;;;;0.00;0.00;;;14.60;69.70;;;;;;4160530;28;20056;-44
2021/05/04 02:11:29;;;;;;;0.00;0.00;;;14.60;69.80;;;;;;4144251;28;20045;-45
2021/05/04 02:13:50;;;;;;;0.00;0.00;;;14.60;69.90;;;;;;4156724;28;20045;-43
2021/05/04 02:16:11;;;;;;;0.22;0.22;;;14.60;69.90;;;;;;4144127;28;20057;-46
2021/05/04 02:18:32;;;;;;;0.00;0.00;;;14.60;70.10;;;;;;4144031;28;20054;-49
2021/05/04 02:20:53;;;;;;;0.00;0.00;;;14.60;70.10;;;;;;4154776;28;20496;-48
2021/05/04 02:23:14;;;;;;;0.00;0.00;;;14.60;70.20;;;;;;4159967;28;20061;-47
2021/05/04 02:25:35;;;;;;;0.00;0.00;;;14.60;70.20;;;;;;4160791;28;20063;-44
2021/05/04 02:27:56;;;;;;;0.05;0.05;;;14.60;70.20;;;;;;4160133;28;20037;-44
2021/05/04 02:30:18;;;;;;;0.00;0.00;;;14.60;70.30;;;;;;4160171;28;20555;-46
2021/05/04 02:32:39;;;;;;;0.20;0.20;;;14.50;70.40;;;;;;4160217;28;20084;-46
2021/05/04 02:35:00;;;;;;;0.00;0.00;;;14.60;70.50;;;;;;4160001;28;20577;-53
2021/05/04 02:37:21;;;;;;;0.05;0.05;;;14.50;70.40;;;;;;4160215;28;20057;-47
2021/05/04 02:39:42;;;;;;;0.10;0.10;;;14.50;70.40;;;;;;4160052;28;20052;-46
2021/05/04 02:42:03;;;;;;;0.00;0.00;;;14.50;70.50;;;;;;4160410;28;20046;-46
2021/05/04 02:44:25;;;;;;;0.00;0.00;;;14.50;70.60;;;;;;4159967;28;20103;-45
2021/05/04 02:46:46;;;;;;;0.15;0.15;;;14.50;70.60;;;;;;4160038;28;20052;-51
2021/05/04 02:49:08;;;;;;;0.10;0.10;;;14.50;70.70;;;;;;4159960;28;20049;-46
2021/05/04 02:51:29;;;;;;;0.00;0.00;;;14.50;70.70;;;;;;4159886;28;20103;-47
2021/05/04 02:53:50;;;;;;;0.10;0.10;;;14.50;70.80;;;;;;4159888;28;20053;-51
2021/05/04 02:56:11;;;;;;;;;;;14.50;70.80;;;;;;4160369;28;20049;-44
2021/05/04 02:58:32;;;;;;;0.10;0.10;;;14.50;70.80;;;;;;4159703;28;20396;-49
2021/05/04 03:00:55;;;;;;;0.00;0.00;;;14.50;70.90;;;;;;4159608;28;20455;-49
2021/05/04 03:03:16;;;;;;;0.00;0.00;;;14.50;70.90;;;;;;4158785;28;20114;-44
2021/05/04 03:05:37;;;;;;;0.00;0.00;;;14.50;71.00;;;;;;4159479;28;20488;-45
2021/05/04 03:07:58;;;;;;;0.00;0.00;;;14.40;71.00;;;;;;4159725;28;20041;-50
2021/05/04 03:10:19;;;;;;;0.00;0.00;;;14.40;71.00;;;;;;4159822;28;20074;-48
2021/05/04 03:12:40;;;;;;;0.00;0.00;;;14.50;71.10;;;;;;4159583;28;20049;-48
2021/05/04 03:15:01;;;;;;;0.15;0.15;;;14.40;71.10;;;;;;4159262;28;20054;-47
2021/05/04 03:17:23;;;;;;;0.00;0.00;;;14.40;71.10;;;;;;4159610;28;20060;-43
2021/05/04 03:19:44;;;;;;;0.28;0.28;;;14.40;71.10;;;;;;4158724;28;20171;-43
2021/05/04 03:22:05;;;;;;;0.03;0.03;;;14.40;71.20;;;;;;4159483;28;20060;-44
2021/05/04 03:24:26;;;;;;;0.10;0.10;;;14.50;71.30;;;;;;4159215;28;20069;-43
2021/05/04 03:26:46;;;;;;;0.00;0.00;;;14.40;71.30;;;;;;4159614;28;20041;-43
2021/05/04 03:29:07;;;;;;;1.67;1.55;;;14.40;71.40;;;;;;4159297;28;20045;-43
2021/05/04 03:31:29;;;;;;;0.00;0.00;;;14.40;71.40;;;;;;4159469;28;20063;-43
2021/05/04 03:33:51;;;;;;;0.43;0.43;;;14.40;71.50;;;;;;4159248;28;20790;-43
2021/05/04 03:36:14;;;;;;;0.00;0.00;;;14.40;71.60;;;;;;4159467;28;20504;-41
2021/05/04 03:38:35;;;;;;;0.00;0.00;;;14.40;71.60;;;;;;4158849;28;20089;-43
2021/05/04 03:40:56;;;;;;;0.00;0.00;;;14.40;71.60;;;;;;4159191;28;20069;-42
2021/05/04 03:43:17;;;;;;;0.00;0.00;;;14.30;71.50;;;;;;4159139;28;20770;-42
2021/05/04 03:45:38;;;;;;;;;;;14.40;71.70;;;;;;4159358;28;20061;-41
2021/05/04 03:47:59;;;;;;;0.05;0.03;;;14.30;71.70;;;;;;4157369;28;20391;-42
2021/05/04 03:50:24;;;;;;;0.00;0.00;;;14.30;71.70;;;;;;4158769;28;20060;-41
2021/05/04 03:52:45;;;;;;;0.00;0.00;;;14.30;71.80;;;;;;4158957;28;20049;-41
2021/05/04 03:55:06;;;;;;;;;;;14.30;71.80;;;;;;4159138;28;20046;-42
2021/05/04 03:57:27;;;;;;;1.65;1.55;;;14.30;71.90;;;;;;4159001;28;19930;-42
2021/05/04 03:59:48;;;;;;;0.00;0.00;;;14.30;71.80;;;;;;4158870;28;20119;-42
2021/05/04 04:02:09;;;;;;;0.00;0.00;;;14.30;71.90;;;;;;4158738;28;20050;-41
2021/05/04 04:04:30;;;;;;;1.35;0.57;;;14.20;71.90;;;;;;4158272;28;20443;-46
2021/05/04 04:06:53;;;;;;;0.00;0.00;;;14.30;72.10;;;;;;4158600;28;20099;-42
2021/05/04 04:09:14;;;;;;;0.00;0.00;;;14.20;72.00;;;;;;4158685;28;20049;-42
2021/05/04 04:11:37;;;;;;;0.00;0.00;;;14.30;72.10;;;;;;4158885;28;20041;-44
2021/05/04 04:13:59;;;;;;;0.00;0.00;;;14.30;72.20;;;;;;4158266;28;20524;-43
2021/05/04 04:16:20;;;;;;;0.40;0.40;;;14.20;72.20;;;;;;4158391;28;20785;-42
2021/05/04 04:18:41;;;;;;;0.00;0.00;;;14.30;72.20;;;;;;4158336;28;20049;-42
2021/05/04 04:21:02;;;;;;;0.00;0.00;;;14.20;72.20;;;;;;4158170;28;20065;-42
2021/05/04 04:23:23;;;;;;;0.00;0.00;;;14.30;72.30;;;;;;4158230;28;20107;-41
2021/05/04 04:25:45;;;;;;;0.00;0.00;;;14.30;72.40;;;;;;4158258;28;20563;-42
2021/05/04 04:28:06;;;;;;;0.00;0.00;;;14.30;72.40;;;;;;4158048;28;20046;-42
2021/05/04 04:30:27;;;;;;;0.00;0.00;;;14.20;72.40;;;;;;4156859;28;20068;-42
2021/05/04 04:32:48;;;;;;;0.00;0.00;;;14.20;72.40;;;;;;4156864;28;20037;-42
2021/05/04 04:35:10;;;;;;;0.15;0.15;;;14.20;72.50;;;;;;4158120;28;20069;-43
2021/05/04 04:37:31;;;;;;;0.20;0.20;;;14.20;72.50;;;;;;4158033;28;20045;-43
2021/05/04 04:39:53;;;;;;;0.00;0.00;;;14.20;72.50;;;;;;4158180;28;20065;-43
2021/05/04 04:42:14;;;;;;;1.35;1.25;;;14.20;72.60;;;;;;4158286;28;20123;-48
2021/05/04 04:44:35;;;;;;;0.00;0.00;;;14.20;72.70;;;;;;4158080;28;20050;-43
2021/05/04 04:46:56;;;;;;;0.00;0.00;;;14.20;72.70;;;;;;4158445;28;20156;-44
2021/05/04 04:49:19;;;;;;;0.00;0.00;;;14.20;72.70;;;;;;4157940;28;20049;-44
2021/05/04 04:51:40;;;;;;;0.47;0.47;;;14.20;72.80;;;;;;4156934;28;20091;-53
2021/05/04 04:54:02;;;;;;;0.88;0.88;;;14.20;72.90;;;;;;4158224;28;20049;-43
2021/05/04 04:56:24;;;;;;;0.50;0.50;;;14.20;73.00;;;;;;4157988;28;20207;-48
2021/05/04 04:58:44;;;;;;;0.00;0.00;;;14.20;73.00;;;;;;4156874;28;20069;-43
2021/05/04 05:01:05;;;;;;;0.00;0.00;;;14.10;73.00;;;;;;4158199;28;20045;-43
2021/05/04 05:03:26;;;;;;;0.00;0.00;;;14.10;73.10;;;;;;4157869;28;20064;-43
2021/05/04 05:05:47;;;;;;;0.55;0.55;;;14.20;73.10;;;;;;4158179;28;20127;-45
2021/05/04 05:08:08;;;;;;;0.00;0.00;;;14.20;73.10;;;;;;4157801;28;20132;-43
2021/05/04 05:10:29;;;;;;;0.00;0.00;;;14.20;73.10;;;;;;4157990;28;20448;-43
2021/05/04 05:12:50;;;;;;;0.00;0.00;;;14.10;73.20;;;;;;4141763;28;20057;-43
2021/05/04 05:15:13;;;;;;;0.00;0.00;;;14.10;73.20;;;;;;4141676;28;20042;-46
2021/05/04 05:17:34;;;;;;;0.00;0.00;;;14.10;73.20;;;;;;4141652;28;20041;-48
2021/05/04 05:19:56;;;;;;;0.10;0.10;;;14.10;73.30;;;;;;4141807;28;20103;-45
2021/05/04 05:22:17;;;;;;;0.00;0.00;;;14.10;73.50;;;;;;4141733;28;20515;-51
2021/05/04 05:24:39;;;;;;;0.08;0.08;;;14.20;73.70;;;;;;4156150;28;20135;-43
2021/05/04 05:27:01;;;;;;;0.00;0.00;;;14.20;75.30;;;;;;4158116;28;20132;-46
2021/05/04 05:29:23;;;;;;;1.38;1.27;;;14.20;74.80;;;;;;4157941;28;20481;-47
2021/05/04 05:31:44;;;;;;;0.00;0.00;;;14.30;74.30;;;;;;4157842;28;20049;-43
2021/05/04 05:34:05;;;;;;;0.75;0.38;;;14.30;74.00;;;;;;4157546;28;20041;-46
2021/05/04 05:36:26;;;;;;;;;;;14.20;73.80;;;;;;4158524;28;20500;-46
2021/05/04 05:38:47;;;;;;;0.10;0.10;;;14.30;73.80;;;;;;4157521;28;19931;-44
2021/05/04 05:41:08;;;;;;;2.90;0.77;;;14.20;73.60;;;;;;4154741;28;20558;-47
2021/05/04 05:43:29;;;;;;;0.08;0.08;;;14.20;73.60;;;;;;4157734;28;20510;-45
2021/05/04 05:45:51;;;;;;;0.00;0.00;;;14.20;73.70;;;;;;4157443;28;20111;-49
2021/05/04 05:48:12;;;;;;;0.00;0.00;;;14.20;73.90;;;;;;4155721;28;20061;-47
2021/05/04 05:50:32;;;;;;;0.40;0.35;;;14.20;73.80;;;;;;4157950;28;20068;-46
2021/05/04 05:52:54;;;;;;;0.00;0.00;;;14.20;73.90;;;;;;4157113;28;20053;-48
2021/05/04 05:55:15;;;;;;;0.00;0.00;;;14.20;73.80;;;;;;4157570;28;20072;-47
2021/05/04 05:57:36;;;;;;;0.00;0.00;;;14.20;73.90;;;;;;4157732;28;20061;-47
2021/05/04 05:59:57;;;;;;;;;;;14.20;73.90;;;;;;4158171;28;20650;-45
2021/05/04 06:02:18;;;;;;;0.00;0.00;;;14.20;74.00;;;;;;4158083;28;19929;-50
2021/05/04 06:04:40;;;;;;;0.10;0.10;;;14.20;73.90;;;;;;4160685;28;20033;-44
2021/05/04 06:07:02;;;;;;;;;;;14.20;74.00;;;;;;4161164;28;20052;-46
2021/05/04 06:09:23;;;;;;;;;;;14.20;74.00;;;;;;4160877;28;20372;-45
2021/05/04 06:11:44;;;;;;;0.00;0.00;;;14.20;74.10;;;;;;4160638;28;19927;-44
2021/05/04 06:14:05;;;;;;;0.00;0.00;;;14.20;74.00;;;;;;4160575;28;20049;-43
2021/05/04 06:16:26;;;;;;;0.00;0.00;;;14.20;74.00;;;;;;4160492;28;20511;-42
2021/05/04 06:18:48;;;;;;;0.00;0.00;;;14.10;74.00;;;;;;4160524;28;20049;-43
2021/05/04 06:21:08;;;;;;;;;;;14.20;74.10;;;;;;4161053;28;20758;-43
2021/05/04 06:23:29;;;;;;;0.00;0.00;;;14.10;74.20;;;;;;4160268;28;19925;-42
2021/05/04 06:25:51;;;;;;;0.00;0.00;;;14.10;74.10;;;;;;4160458;28;20053;-42
2021/05/04 06:28:11;;;;;;;0.00;0.00;;;14.10;74.10;;;;;;4159903;28;20061;-42
2021/05/04 06:30:35;;;;;;;0.30;0.30;;;14.10;74.10;;;;;;4159973;28;20041;-42
2021/05/04 06:33:01;;;;;;;0.00;0.00;;;14.10;74.00;;;;;;4160321;28;20119;-42
2021/05/04 06:35:23;;;;;;;0.00;0.00;;;14.10;74.00;;;;;;4158415;28;20057;-48
2021/05/04 06:37:44;;;;;;;0.00;0.00;;;14.10;74.00;;;;;;4159995;28;20045;-43
2021/05/04 06:40:07;;;;;;;0.00;0.00;;;14.10;74.00;;;;;;4160107;28;20053;-44
2021/05/04 06:42:28;;;;;;;0.00;0.00;;;14.10;74.00;;;;;;4160324;28;20045;-43
2021/05/04 06:44:48;;;;;;;4.25;0.38;;;14.10;74.00;;;;;;4160057;28;20046;-45
2021/05/04 06:47:10;;;;;;;;;;;14.10;74.00;;;;;;4160246;28;20542;-43
2021/05/04 06:49:32;;;;;;;0.10;0.10;;;14.10;73.90;;;;;;4160116;28;20343;-42
2021/05/04 06:51:54;;;;;;;0.00;0.00;;;14.10;73.90;;;;;;4159890;28;20488;-43
2021/05/04 06:54:16;;;;;;;0.00;0.00;;;14.10;73.90;;;;;;4159283;28;20061;-43
2021/05/04 06:56:37;;;;;;;0.00;0.00;;;14.10;73.90;;;;;;4159548;28;20049;-46
2021/05/04 06:58:57;;;;;;;0.20;0.20;;;14.10;73.90;;;;;;4160712;28;20422;-46
2021/05/04 07:01:18;;;;;;;0.00;0.00;;;14.10;74.00;;;;;;4158149;28;20810;-43
2021/05/04 07:03:40;;;;;;;0.00;0.00;;;14.10;74.00;;;;;;4157355;28;20045;-44
2021/05/04 07:06:02;;;;;;;0.00;0.00;;;14.10;74.00;;;;;;4154531;28;20053;-44
2021/05/04 07:08:24;;;;;;;0.00;0.00;;;14.10;74.00;;;;;;4158320;28;20049;-42
2021/05/04 07:10:45;;;;;;;0.28;0.28;;;14.10;74.10;;;;;;4160699;28;20140;-42
2021/05/04 07:13:06;;;;;;;;;;;14.20;74.40;;;;;;4166058;28;20127;-43
2021/05/04 07:15:27;;;;;;;0.00;0.00;;;14.50;73.70;;;;;;4158577;28;19921;-45
2021/05/04 07:17:48;;;;;;;0.00;0.00;;;15.00;71.90;;;;;;4155838;28;20054;-41
2021/05/04 07:20:10;;;;;;;0.20;0.20;;;15.50;70.20;;;;;;4158629;28;20056;-48
2021/05/04 07:22:34;;;;;;;0.32;0.32;;;16.00;68.40;;;;;;4159065;28;20060;-43
2021/05/04 07:24:56;;;;;;;0.00;0.00;;;16.40;66.80;;;;;;4159763;28;20183;-44
2021/05/04 07:27:18;;;;;;;0.00;0.00;;;17.00;64.60;;;;;;4175928;28;20057;-43
2021/05/04 07:29:40;;;;;;;1.15;0.50;;;17.50;63.10;;;;;;4175803;28;20045;-42
2021/05/04 07:32:00;;;;;;;0.00;0.00;;;17.90;61.50;;;;;;4174819;28;20049;-42
2021/05/04 07:34:22;;;;;;;0.00;0.00;;;18.40;60.00;;;;;;4143012;28;20065;-43
2021/05/04 07:36:43;;;;;;;0.00;0.00;;;18.80;58.90;;;;;;4154107;28;20111;-45
2021/05/04 07:39:05;;;;;;;0.00;0.00;;;19.00;58.00;;;;;;4158974;28;20129;-43
2021/05/04 07:41:28;;;;;;;0.00;0.00;;;19.10;57.80;;;;;;4157732;28;20068;-41
2021/05/04 07:43:49;;;;;;;2.75;1.33;;;19.20;57.50;;;;;;4174803;28;20415;-42
2021/05/04 07:46:10;;;;;;;0.10;0.10;;;19.20;57.30;;;;;;4175233;28;20492;-45
2021/05/04 07:48:31;;;;;;;0.00;0.00;;;19.20;57.50;;;;;;4159468;28;22004;-42
2021/05/04 07:50:52;;;;;;;;;;;19.10;57.50;;;;;;4159605;28;20494;-42
2021/05/04 07:53:14;;;;;;;0.00;0.00;;;18.90;57.90;;;;;;4158855;28;19925;-41
2021/05/04 07:55:35;;;;;;;0.03;0.03;;;18.70;58.20;;;;;;4158790;28;20392;-43
2021/05/04 07:57:58;;;;;;;;;;;18.60;58.70;;;;;;4158855;28;20511;-45
2021/05/04 08:00:19;;;;;;;0.10;0.10;;;18.40;59.20;;;;;;4157897;28;19928;-41
2021/05/04 08:02:40;;;;;;;0.00;0.00;;;18.20;59.70;;;;;;4157175;28;20049;-42
2021/05/04 08:05:02;;;;;;;0.00;0.00;;;18.10;60.20;;;;;;4159072;28;20111;-42
2021/05/04 08:07:22;;;;;;;;;;;17.90;60.70;;;;;;4158666;28;20143;-42
2021/05/04 08:09:44;;;;;;;0.22;0.22;;;17.80;61.00;;;;;;4157769;28;19925;-42
2021/05/04 08:12:06;;;;;;;0.00;0.00;;;17.70;61.50;;;;;;4158313;28;20096;-43
2021/05/04 08:14:29;;;;;;;0.08;0.08;;;17.70;61.90;;;;;;4157362;28;20057;-42
2021/05/04 08:16:49;;;;;;;0.20;0.20;;;17.70;61.90;;;;;;4161875;28;20058;-42
2021/05/04 08:19:11;;;;;;;0.17;0.17;;;17.70;61.90;;;;;;4158497;28;20111;-42
2021/05/04 08:21:33;;;;;;;0.13;0.13;;;17.80;61.80;;;;;;4158207;28;20092;-44
2021/05/04 08:23:54;;;;;;;0.00;0.00;;;17.80;61.80;;;;;;4149554;28;20586;-42
2021/05/04 08:26:15;;;;;;;0.00;0.00;;;17.80;61.60;;;;;;4158083;28;20506;-41
2021/05/04 08:28:36;;;;;;;;;;;17.90;61.70;;;;;;4158730;28;20069;-42
2021/05/04 08:30:59;;;;;;;0.00;0.00;;;17.90;61.50;;;;;;4158218;28;20049;-42
2021/05/04 08:33:20;;;;;;;0.15;0.15;;;17.90;61.50;;;;;;4156915;28;20695;-43
2021/05/04 08:35:41;;;;;;;0.10;0.10;;;17.80;61.60;;;;;;4158456;28;20491;-42
2021/05/04 08:38:04;;;;;;;0.00;0.00;;;17.70;61.70;;;;;;4158351;28;20041;-42
2021/05/04 08:40:26;;;;;;;0.10;0.10;;;17.70;62.10;;;;;;4158241;28;20058;-41
2021/05/04 08:42:48;;;;;;;0.00;0.00;;;17.60;62.40;;;;;;4142084;28;20049;-43
2021/05/04 08:45:10;;;;;;;1.23;1.00;;;17.50;62.70;;;;;;4141930;28;20053;-41
2021/05/04 08:47:32;;;;;;;0.20;0.20;;;17.40;63.20;;;;;;4150507;28;20067;-42
2021/05/04 08:49:53;;;;;;;1.45;1.35;;;17.20;63.60;;;;;;4158232;28;20057;-42
2021/05/04 08:52:14;;;;;;;0.00;0.00;;;17.10;64.00;;;;;;4158011;28;20049;-41
2021/05/04 08:54:35;;;;;;;1.65;1.42;;;17.00;64.40;;;;;;4158099;28;20041;-41
2021/05/04 08:56:56;;;;;;;0.00;0.00;;;16.90;65.00;;;;;;4157198;28;20065;-41
2021/05/04 08:59:17;;;;;;;0.10;0.10;;;17.00;65.50;;;;;;4157983;28;20575;-44
2021/05/04 09:01:39;;;;;;;0.20;0.20;;;17.10;65.00;;;;;;4157761;28;20081;-41
2021/05/04 09:04:03;;;;;;;0.00;0.00;;;17.30;64.40;;;;;;4158288;28;20140;-42
2021/05/04 09:06:31;;;;;;;0.00;0.00;;;17.40;63.70;;;;;;4157298;28;20416;-42
2021/05/04 09:08:56;;;;;;;1.55;1.10;;;17.50;63.20;;;;;;4157532;28;20045;-42
2021/05/04 09:11:23;;;;;;;0.70;0.40;;;17.50;63.00;;;;;;4157963;28;20049;-42
2021/05/04 09:13:54;;;;;;;0.00;0.00;;;17.50;62.90;;;;;;4157501;28;20476;-44
2021/05/04 09:21:38;;;;;;;0.00;0.00;;;17.40;63.10;;;;;;4141190;28;20050;-43
2021/05/04 09:24:18;;;;;;;0.00;0.00;;;17.30;63.30;;;;;;4143402;28;20057;-44
2021/05/04 09:26:39;;;;;;;0.10;0.10;;;17.20;63.50;;;;;;4157360;28;20542;-45
2021/05/04 09:29:07;;;;;;;0.00;0.00;;;17.20;63.70;;;;;;4157620;28;20435;-44
2021/05/04 09:31:29;;;;;;;0.80;0.80;;;17.20;63.70;;;;;;4157583;28;20160;-45
2021/05/04 09:33:51;;;;;;;0.10;0.10;;;17.20;63.90;;;;;;4157397;28;20459;-45
2021/05/04 09:36:44;;;;;;;0.00;0.00;;;17.20;63.80;;;;;;4156774;28;20068;-44
2021/05/04 09:39:09;;;;;;;0.00;0.00;;;17.40;63.30;;;;;;4161023;28;20156;-44
2021/05/04 09:41:30;;;;;;;0.75;0.75;;;17.60;62.80;;;;;;4161199;28;20045;-44
2021/05/04 09:43:51;;;;;;;0.00;0.00;;;17.70;62.30;;;;;;4160666;28;20053;-45
2021/05/04 09:46:12;;;;;;;0.00;0.00;;;17.70;62.10;;;;;;4160798;28;20455;-44
2021/05/04 09:48:34;;;;;;;;;;;17.70;62.10;;;;;;4144765;28;20052;-45
2021/05/04 09:51:02;;;;;;;0.43;0.43;;;17.70;62.50;;;;;;4144309;28;20328;-45
2021/05/04 09:53:28;;;;;;;0.00;0.00;;;17.60;62.70;;;;;;4160313;28;20049;-45
2021/05/04 09:56:00;;;;;;;0.00;0.00;;;17.50;63.10;;;;;;4159346;28;20052;-47
2021/05/04 09:58:34;;;;;;;0.00;0.00;;;17.40;63.60;;;;;;4159728;28;20053;-44
2021/05/04 10:00:55;;;;;;;0.00;0.00;;;17.30;64.00;;;;;;4144142;28;20547;-44
2021/05/04 10:03:15;;;;;;;0.63;0.63;;;17.20;64.60;;;;;;4143259;28;20049;-45
2021/05/04 10:05:37;;;;;;;0.00;0.00;;;17.10;65.00;;;;;;4144220;28;20072;-45
2021/05/04 10:07:58;;;;;;;0.05;0.05;;;17.00;65.50;;;;;;4144209;28;20200;-45
2021/05/04 10:10:20;;;;;;;0.10;0.10;;;16.90;66.10;;;;;;4144022;28;20046;-45
2021/05/04 10:12:43;;;;;;;0.20;0.20;;;17.00;65.80;;;;;;4144323;28;20053;-47
2021/05/04 10:15:06;;;;;;;0.00;0.00;;;17.20;65.30;;;;;;4153400;28;20045;-44
2021/05/04 10:17:30;;;;;;;0.00;0.00;;;17.30;65.00;;;;;;4171563;28;20110;-43
2021/05/04 10:19:52;;;;;;;0.03;0.03;;;17.30;64.90;;;;;;4176458;28;20492;-44
2021/05/04 10:22:14;;;;;;;1.25;0.95;;;17.40;64.70;;;;;;4176958;28;20063;-43
2021/05/04 10:24:36;;;;;;;0.30;0.30;;;17.30;65.80;;;;;;4176513;28;20049;-44
2021/05/04 10:27:00;;;;;;;0.00;0.00;;;17.30;65.00;;;;;;4176798;28;20495;-46
2021/05/04 10:29:23;;;;;;;15.57;2.78;;;17.20;65.20;;;;;;4169651;28;20057;-44
2021/05/04 10:31:46;;;;;;;0.05;0.05;;;17.20;65.40;;;;;;4159767;28;20132;-44
2021/05/04 10:34:35;;;;;;;0.00;0.00;;;17.10;65.80;;;;;;4143798;28;20389;-44
2021/05/04 10:36:56;;;;;;;0.98;0.52;;;17.00;65.90;;;;;;4140189;28;20484;-44
2021/05/04 10:39:36;;;;;;;0.00;0.00;;;16.90;66.20;;;;;;4159789;28;20045;-44
2021/05/04 10:42:00;;;;;;;0.40;0.40;;;16.80;66.50;;;;;;4159779;28;20045;-44
2021/05/04 10:44:21;;;;;;;0.00;0.00;;;16.80;66.90;;;;;;4159810;28;20563;-41
2021/05/04 10:46:43;;;;;;;0.00;0.00;;;16.80;66.90;;;;;;4159887;28;20045;-42
2021/05/04 10:49:05;;;;;;;0.00;0.00;;;16.90;66.80;;;;;;4155074;28;20053;-42
2021/05/04 10:51:43;;;;;;;0.10;0.10;;;16.80;66.80;;;;;;4159063;28;20041;-41
2021/05/04 10:54:05;;;;;;;1.85;1.75;;;16.80;66.70;;;;;;4159504;28;20041;-41
2021/05/04 10:56:37;;;;;;;0.00;0.00;;;16.80;66.80;;;;;;4159386;28;20525;-42
2021/05/04 10:58:59;;;;;;;0.00;0.00;;;16.80;66.70;;;;;;4159277;28;20049;-41
2021/05/04 11:01:20;;;;;;;0.00;0.00;;;16.90;66.50;;;;;;4159704;28;20906;-41
2021/05/04 11:03:52;;;;;;;0.00;0.00;;;17.10;65.90;;;;;;4159208;28;20049;-41
2021/05/04 11:06:15;;;;;;;0.55;0.55;;;17.30;65.00;;;;;;4158989;28;20501;-41
2021/05/04 11:09:09;;;;;;;0.00;0.00;;;17.40;64.30;;;;;;4158925;28;20053;-41
2021/05/04 11:11:39;;;;;;;0.00;0.00;;;17.50;64.00;;;;;;4142797;28;20497;-41
2021/05/04 11:14:02;;;;;;;0.00;0.00;;;17.40;63.90;;;;;;4147354;28;20057;-44
2021/05/04 11:16:30;;;;;;;0.00;0.00;;;17.40;64.00;;;;;;4161541;28;20762;-44
2021/05/04 11:19:02;;;;;;;0.00;0.00;;;17.40;64.50;;;;;;4175430;28;20495;-44
2021/05/04 11:21:42;;;;;;;0.00;0.00;;;17.30;64.80;;;;;;4171639;28;20057;-44
2021/05/04 11:24:04;;;;;;;0.00;0.00;;;17.30;65.00;;;;;;4156746;28;20105;-44
2021/05/04 11:26:43;;;;;;;0.00;0.00;;;17.40;64.90;;;;;;4158701;28;20416;-42
2021/05/04 11:29:09;;;;;;;0.00;0.00;;;17.50;65.00;;;;;;4158948;28;20134;-44
2021/05/04 11:31:40;;;;;;;0.00;0.00;;;17.60;64.70;;;;;;4159330;28;20136;-45
2021/05/04 11:34:34;;;;;;;0.00;0.00;;;17.60;65.50;;;;;;4142436;28;20131;-44
2021/05/04 11:36:57;;;;;;;0.55;0.55;;;17.60;64.50;;;;;;4142561;28;20045;-44
2021/05/04 11:39:18;;;;;;;0.00;0.00;;;17.60;64.40;;;;;;4144177;28;20056;-43
2021/05/04 11:41:39;;;;;;;0.50;0.50;;;17.50;64.60;;;;;;4158654;28;20053;-44
2021/05/04 11:44:00;;;;;;;0.00;0.00;;;17.50;64.60;;;;;;4158895;28;20665;-44
2021/05/04 11:46:28;;;;;;;0.00;0.00;;;17.50;64.50;;;;;;4159117;28;20128;-42
2021/05/04 11:48:58;;;;;;;0.00;0.00;;;17.50;64.20;;;;;;4158869;28;20049;-45
2021/05/04 11:51:19;;;;;;;;;;;17.60;63.70;;;;;;4159130;28;20388;-43
2021/05/04 11:53:40;;;;;;;0.00;0.00;;;17.80;63.30;;;;;;4157589;28;20336;-43
2021/05/04 11:56:07;;;;;;;0.00;0.00;;;17.90;62.50;;;;;;4158581;28;20831;-43
2021/05/04 11:58:28;;;;;;;0.15;0.15;;;18.00;62.50;;;;;;4156654;28;20506;-47
2021/05/04 12:00:57;;;;;;;0.00;0.00;;;17.90;62.50;;;;;;4158473;28;20064;-47
2021/05/04 12:03:18;;;;;;;0.00;0.00;;;17.90;62.60;;;;;;4161566;28;20145;-43
2021/05/04 12:05:41;;;;;;;0.00;0.00;;;17.80;62.90;;;;;;4157820;28;20491;-43
2021/05/04 12:08:03;;;;;;;0.00;0.00;;;17.70;63.20;;;;;;4174683;28;20056;-47
2021/05/04 12:10:29;;;;;;;0.05;0.05;;;17.50;63.60;;;;;;4160077;28;20065;-44
2021/05/04 12:12:52;;;;;;;0.00;0.00;;;17.40;64.00;;;;;;4158611;28;20049;-43
2021/05/04 12:15:14;;;;;;;0.00;0.00;;;17.30;64.40;;;;;;4155588;28;20060;-44
2021/05/04 12:17:35;;;;;;;0.00;0.00;;;17.30;64.70;;;;;;4155687;28;20049;-44
2021/05/04 12:20:09;;;;;;;0.00;0.00;;;17.30;64.70;;;;;;4148845;28;20479;-46
2021/05/04 12:22:43;;;;;;;0.00;0.00;;;17.30;64.70;;;;;;4158285;28;20124;-44
2021/05/04 12:25:04;;;;;;;0.00;0.00;;;17.30;64.60;;;;;;4157831;28;20088;-44
2021/05/04 12:27:26;;;;;;;0.00;0.00;;;17.30;64.60;;;;;;4158230;28;20053;-43
2021/05/04 12:29:49;;;;;;;0.00;0.00;;;17.30;64.70;;;;;;4157867;28;20049;-44
2021/05/04 12:32:10;;;;;;;0.80;0.80;;;17.30;64.60;;;;;;4157796;28;20046;-43
2021/05/04 12:34:31;;;;;;;0.00;0.00;;;17.30;64.40;;;;;;4149263;28;20053;-43